sensor_id;sensor_type;location;lat;lon;timestamp;temperature;humidity
19168;DHT22;9716;53.114;18.040;2023-06-04T00:01:12;11.80;79.30
19168;DHT22;9716;53.114;18.040;2023-06-04T00:03:59;11.80;79.50
19168;DHT22;9716;53.114;18.040;2023-06-04T00:06:27;11.80;79.70
19168;DHT22;9716;53.114;18.040;2023-06-04T00:08:56;11.80;79.80
19168;DHT22;9716;53.114;18.040;2023-06-04T00:11:24;11.70;80.60
19168;DHT22;9716;53.114;18.040;2023-06-04T00:13:53;11.70;80.00
19168;DHT22;9716;53.114;18.040;2023-06-04T00:16:22;11.70;80.10
19168;DHT22;9716;53.114;18.040;2023-06-04T00:18:50;11.60;80.20
19168;DHT22;9716;53.114;18.040;2023-06-04T00:21:21;11.60;80.30
19168;DHT22;9716;53.114;18.040;2023-06-04T00:23:49;11.60;80.50
19168;DHT22;9716;53.114;18.040;2023-06-04T00:26:18;11.60;80.80
19168;DHT22;9716;53.114;18.040;2023-06-04T00:28:47;11.50;80.90
19168;DHT22;9716;53.114;18.040;2023-06-04T00:31:15;11.40;81.10
19168;DHT22;9716;53.114;18.040;2023-06-04T00:33:44;11.40;81.20
19168;DHT22;9716;53.114;18.040;2023-06-04T00:36:12;11.40;81.40
19168;DHT22;9716;53.114;18.040;2023-06-04T00:38:42;11.30;81.50
19168;DHT22;9716;53.114;18.040;2023-06-04T00:41:11;11.30;81.70
19168;DHT22;9716;53.114;18.040;2023-06-04T00:43:39;11.30;82.00
19168;DHT22;9716;53.114;18.040;2023-06-04T00:46:13;11.20;82.10
19168;DHT22;9716;53.114;18.040;2023-06-04T00:48:45;11.20;82.30
19168;DHT22;9716;53.114;18.040;2023-06-04T00:51:14;11.10;82.50
19168;DHT22;9716;53.114;18.040;2023-06-04T00:53:43;11.10;82.80
19168;DHT22;9716;53.114;18.040;2023-06-04T00:56:12;11.00;83.00
19168;DHT22;9716;53.114;18.040;2023-06-04T00:58:40;11.00;83.30
19168;DHT22;9716;53.114;18.040;2023-06-04T01:01:15;11.00;83.40
19168;DHT22;9716;53.114;18.040;2023-06-04T01:03:47;10.90;83.60
19168;DHT22;9716;53.114;18.040;2023-06-04T01:06:23;10.90;83.70
19168;DHT22;9716;53.114;18.040;2023-06-04T01:08:58;10.80;83.90
19168;DHT22;9716;53.114;18.040;2023-06-04T01:11:32;10.90;84.10
19168;DHT22;9716;53.114;18.040;2023-06-04T01:14:01;10.80;84.20
19168;DHT22;9716;53.114;18.040;2023-06-04T01:16:35;10.80;85.20
19168;DHT22;9716;53.114;18.040;2023-06-04T01:19:11;10.80;84.50
19168;DHT22;9716;53.114;18.040;2023-06-04T01:21:50;10.80;84.70
19168;DHT22;9716;53.114;18.040;2023-06-04T01:24:25;10.70;84.80
19168;DHT22;9716;53.114;18.040;2023-06-04T01:26:55;10.70;85.10
19168;DHT22;9716;53.114;18.040;2023-06-04T01:29:24;10.70;85.30
19168;DHT22;9716;53.114;18.040;2023-06-04T01:31:57;10.60;85.40
19168;DHT22;9716;53.114;18.040;2023-06-04T01:34:26;10.60;85.60
19168;DHT22;9716;53.114;18.040;2023-06-04T01:36:55;10.60;85.80
19168;DHT22;9716;53.114;18.040;2023-06-04T01:39:25;10.50;86.00
19168;DHT22;9716;53.114;18.040;2023-06-04T01:41:53;10.50;86.20
19168;DHT22;9716;53.114;18.040;2023-06-04T01:44:21;10.40;86.40
19168;DHT22;9716;53.114;18.040;2023-06-04T01:46:50;10.40;86.60
19168;DHT22;9716;53.114;18.040;2023-06-04T01:49:18;10.30;86.70
19168;DHT22;9716;53.114;18.040;2023-06-04T01:51:47;10.30;87.00
19168;DHT22;9716;53.114;18.040;2023-06-04T01:54:16;10.30;87.40
19168;DHT22;9716;53.114;18.040;2023-06-04T01:56:46;10.20;87.50
19168;DHT22;9716;53.114;18.040;2023-06-04T01:59:15;10.20;88.50
19168;DHT22;9716;53.114;18.040;2023-06-04T02:01:44;10.10;87.80
19168;DHT22;9716;53.114;18.040;2023-06-04T02:04:12;10.10;87.90
19168;DHT22;9716;53.114;18.040;2023-06-04T02:06:41;10.10;88.10
19168;DHT22;9716;53.114;18.040;2023-06-04T02:09:09;10.10;88.30
19168;DHT22;9716;53.114;18.040;2023-06-04T02:11:38;10.10;88.50
19168;DHT22;9716;53.114;18.040;2023-06-04T02:14:07;10.00;88.60
19168;DHT22;9716;53.114;18.040;2023-06-04T02:16:36;10.00;88.80
19168;DHT22;9716;53.114;18.040;2023-06-04T02:19:06;10.00;88.90
19168;DHT22;9716;53.114;18.040;2023-06-04T02:21:35;10.00;89.10
19168;DHT22;9716;53.114;18.040;2023-06-04T02:24:03;9.90;90.10
19168;DHT22;9716;53.114;18.040;2023-06-04T02:26:32;9.90;90.20
19168;DHT22;9716;53.114;18.040;2023-06-04T02:29:00;9.90;90.30
19168;DHT22;9716;53.114;18.040;2023-06-04T02:31:30;9.90;90.40
19168;DHT22;9716;53.114;18.040;2023-06-04T02:33:59;9.90;90.50
19168;DHT22;9716;53.114;18.040;2023-06-04T02:36:29;9.80;90.50
19168;DHT22;9716;53.114;18.040;2023-06-04T02:38:57;9.90;90.60
19168;DHT22;9716;53.114;18.040;2023-06-04T02:41:26;9.90;90.70
19168;DHT22;9716;53.114;18.040;2023-06-04T02:43:54;9.90;90.70
19168;DHT22;9716;53.114;18.040;2023-06-04T02:46:23;9.80;90.80
19168;DHT22;9716;53.114;18.040;2023-06-04T02:48:53;9.90;90.90
19168;DHT22;9716;53.114;18.040;2023-06-04T02:51:22;9.90;90.90
19168;DHT22;9716;53.114;18.040;2023-06-04T02:53:50;9.90;91.00
19168;DHT22;9716;53.114;18.040;2023-06-04T02:56:19;9.90;91.00
19168;DHT22;9716;53.114;18.040;2023-06-04T02:58:49;9.90;91.10
19168;DHT22;9716;53.114;18.040;2023-06-04T03:01:19;9.90;91.10
19168;DHT22;9716;53.114;18.040;2023-06-04T03:03:48;10.00;90.60
19168;DHT22;9716;53.114;18.040;2023-06-04T03:06:20;10.00;90.60
19168;DHT22;9716;53.114;18.040;2023-06-04T03:08:49;10.10;90.70
19168;DHT22;9716;53.114;18.040;2023-06-04T03:11:18;10.10;90.60
19168;DHT22;9716;53.114;18.040;2023-06-04T03:13:48;10.20;90.70
19168;DHT22;9716;53.114;18.040;2023-06-04T03:16:19;10.30;90.60
19168;DHT22;9716;53.114;18.040;2023-06-04T03:18:48;10.40;90.60
19168;DHT22;9716;53.114;18.040;2023-06-04T03:21:19;10.40;90.50
19168;DHT22;9716;53.114;18.040;2023-06-04T03:23:47;10.60;90.50
19168;DHT22;9716;53.114;18.040;2023-06-04T03:26:16;10.70;90.30
19168;DHT22;9716;53.114;18.040;2023-06-04T03:28:45;10.90;90.20
19168;DHT22;9716;53.114;18.040;2023-06-04T03:31:13;11.00;90.10
19168;DHT22;9716;53.114;18.040;2023-06-04T03:33:42;11.20;89.90
19168;DHT22;9716;53.114;18.040;2023-06-04T03:36:11;11.40;89.50
19168;DHT22;9716;53.114;18.040;2023-06-04T03:38:41;11.70;89.10
19168;DHT22;9716;53.114;18.040;2023-06-04T03:41:09;12.00;88.30
19168;DHT22;9716;53.114;18.040;2023-06-04T03:43:38;12.50;87.30
19168;DHT22;9716;53.114;18.040;2023-06-04T03:46:06;13.10;85.50
19168;DHT22;9716;53.114;18.040;2023-06-04T03:48:35;13.70;83.70
19168;DHT22;9716;53.114;18.040;2023-06-04T03:51:03;14.10;82.60
19168;DHT22;9716;53.114;18.040;2023-06-04T03:53:32;14.30;81.90
19168;DHT22;9716;53.114;18.040;2023-06-04T03:56:03;14.30;81.60
19168;DHT22;9716;53.114;18.040;2023-06-04T03:58:31;14.30;81.40
19168;DHT22;9716;53.114;18.040;2023-06-04T04:01:00;14.20;81.50
19168;DHT22;9716;53.114;18.040;2023-06-04T04:03:33;14.20;81.80
19168;DHT22;9716;53.114;18.040;2023-06-04T04:06:03;14.10;82.10
19168;DHT22;9716;53.114;18.040;2023-06-04T04:08:31;14.00;82.20
19168;DHT22;9716;53.114;18.040;2023-06-04T04:11:03;14.00;82.40
19168;DHT22;9716;53.114;18.040;2023-06-04T04:13:32;14.10;82.40
19168;DHT22;9716;53.114;18.040;2023-06-04T04:16:00;14.20;82.20
19168;DHT22;9716;53.114;18.040;2023-06-04T04:18:32;14.40;82.10
19168;DHT22;9716;53.114;18.040;2023-06-04T04:21:02;14.60;81.50
19168;DHT22;9716;53.114;18.040;2023-06-04T04:23:32;14.90;80.90
19168;DHT22;9716;53.114;18.040;2023-06-04T04:26:01;15.30;80.10
19168;DHT22;9716;53.114;18.040;2023-06-04T04:28:31;15.70;79.30
19168;DHT22;9716;53.114;18.040;2023-06-04T04:30:59;16.00;79.10
19168;DHT22;9716;53.114;18.040;2023-06-04T04:33:29;16.40;77.50
19168;DHT22;9716;53.114;18.040;2023-06-04T04:36:04;16.70;76.60
19168;DHT22;9716;53.114;18.040;2023-06-04T04:38:32;17.00;75.70
19168;DHT22;9716;53.114;18.040;2023-06-04T04:41:01;17.30;74.90
19168;DHT22;9716;53.114;18.040;2023-06-04T04:43:33;17.60;74.20
19168;DHT22;9716;53.114;18.040;2023-06-04T04:46:02;17.90;73.40
19168;DHT22;9716;53.114;18.040;2023-06-04T04:48:30;18.20;72.80
19168;DHT22;9716;53.114;18.040;2023-06-04T04:50:59;18.50;72.60
19168;DHT22;9716;53.114;18.040;2023-06-04T04:53:27;18.90;71.10
19168;DHT22;9716;53.114;18.040;2023-06-04T04:55:57;19.00;70.30
19168;DHT22;9716;53.114;18.040;2023-06-04T04:58:25;19.20;70.00
19168;DHT22;9716;53.114;18.040;2023-06-04T05:00:55;19.40;69.60
19168;DHT22;9716;53.114;18.040;2023-06-04T05:03:25;19.50;69.10
19168;DHT22;9716;53.114;18.040;2023-06-04T05:05:54;19.70;68.90
19168;DHT22;9716;53.114;18.040;2023-06-04T05:08:22;19.80;68.40
19168;DHT22;9716;53.114;18.040;2023-06-04T05:10:51;20.10;68.00
19168;DHT22;9716;53.114;18.040;2023-06-04T05:13:19;20.30;67.50
19168;DHT22;9716;53.114;18.040;2023-06-04T05:15:49;20.50;67.00
19168;DHT22;9716;53.114;18.040;2023-06-04T05:18:21;20.70;66.60
19168;DHT22;9716;53.114;18.040;2023-06-04T05:20:56;20.90;66.10
19168;DHT22;9716;53.114;18.040;2023-06-04T05:23:25;21.20;65.80
19168;DHT22;9716;53.114;18.040;2023-06-04T05:25:54;21.50;65.30
19168;DHT22;9716;53.114;18.040;2023-06-04T05:28:23;21.70;64.80
19168;DHT22;9716;53.114;18.040;2023-06-04T05:30:52;21.90;64.20
19168;DHT22;9716;53.114;18.040;2023-06-04T05:33:28;22.10;63.70
19168;DHT22;9716;53.114;18.040;2023-06-04T05:35:58;22.30;63.40
19168;DHT22;9716;53.114;18.040;2023-06-04T05:38:26;22.40;63.00
19168;DHT22;9716;53.114;18.040;2023-06-04T05:40:58;22.60;62.60
19168;DHT22;9716;53.114;18.040;2023-06-04T05:43:26;22.80;62.20
19168;DHT22;9716;53.114;18.040;2023-06-04T05:45:55;23.00;61.80
19168;DHT22;9716;53.114;18.040;2023-06-04T05:48:24;23.20;61.30
19168;DHT22;9716;53.114;18.040;2023-06-04T05:50:54;23.40;60.90
19168;DHT22;9716;53.114;18.040;2023-06-04T05:53:22;23.60;60.30
19168;DHT22;9716;53.114;18.040;2023-06-04T05:55:51;23.80;60.00
19168;DHT22;9716;53.114;18.040;2023-06-04T05:58:19;24.00;59.60
19168;DHT22;9716;53.114;18.040;2023-06-04T06:00:48;24.30;59.10
19168;DHT22;9716;53.114;18.040;2023-06-04T06:03:17;24.60;58.70
19168;DHT22;9716;53.114;18.040;2023-06-04T06:05:46;24.80;58.20
19168;DHT22;9716;53.114;18.040;2023-06-04T06:08:16;25.10;57.50
19168;DHT22;9716;53.114;18.040;2023-06-04T06:10:45;25.40;57.20
19168;DHT22;9716;53.114;18.040;2023-06-04T06:13:13;25.50;56.80
19168;DHT22;9716;53.114;18.040;2023-06-04T06:15:42;25.50;56.40
19168;DHT22;9716;53.114;18.040;2023-06-04T06:18:11;25.70;56.10
19168;DHT22;9716;53.114;18.040;2023-06-04T06:20:40;26.00;55.50
19168;DHT22;9716;53.114;18.040;2023-06-04T06:23:08;26.30;55.80
19168;DHT22;9716;53.114;18.040;2023-06-04T06:25:38;26.50;54.60
19168;DHT22;9716;53.114;18.040;2023-06-04T06:28:07;26.70;54.00
19168;DHT22;9716;53.114;18.040;2023-06-04T06:30:36;26.90;53.70
19168;DHT22;9716;53.114;18.040;2023-06-04T06:33:04;27.10;53.10
19168;DHT22;9716;53.114;18.040;2023-06-04T06:35:34;27.20;52.90
19168;DHT22;9716;53.114;18.040;2023-06-04T06:38:02;27.30;52.40
19168;DHT22;9716;53.114;18.040;2023-06-04T06:40:31;27.40;52.40
19168;DHT22;9716;53.114;18.040;2023-06-04T06:43:01;27.50;52.00
19168;DHT22;9716;53.114;18.040;2023-06-04T06:45:29;27.80;51.50
19168;DHT22;9716;53.114;18.040;2023-06-04T06:47:58;28.10;51.10
19168;DHT22;9716;53.114;18.040;2023-06-04T06:50:26;28.30;50.50
19168;DHT22;9716;53.114;18.040;2023-06-04T06:52:55;28.40;50.00
19168;DHT22;9716;53.114;18.040;2023-06-04T06:55:24;28.40;50.00
19168;DHT22;9716;53.114;18.040;2023-06-04T06:57:52;28.50;49.60
19168;DHT22;9716;53.114;18.040;2023-06-04T07:00:25;28.60;49.40
19168;DHT22;9716;53.114;18.040;2023-06-04T07:02:54;28.80;48.30
19168;DHT22;9716;53.114;18.040;2023-06-04T07:05:23;28.80;47.90
19168;DHT22;9716;53.114;18.040;2023-06-04T07:07:52;28.80;48.30
19168;DHT22;9716;53.114;18.040;2023-06-04T07:10:21;28.90;47.70
19168;DHT22;9716;53.114;18.040;2023-06-04T07:12:50;28.80;47.80
19168;DHT22;9716;53.114;18.040;2023-06-04T07:15:19;28.80;48.10
19168;DHT22;9716;53.114;18.040;2023-06-04T07:17:48;28.90;47.80
19168;DHT22;9716;53.114;18.040;2023-06-04T07:20:17;29.00;47.30
19168;DHT22;9716;53.114;18.040;2023-06-04T07:22:46;29.20;47.10
19168;DHT22;9716;53.114;18.040;2023-06-04T07:25:15;29.30;46.60
19168;DHT22;9716;53.114;18.040;2023-06-04T07:27:43;29.30;46.70
19168;DHT22;9716;53.114;18.040;2023-06-04T07:30:12;29.20;46.70
19168;DHT22;9716;53.114;18.040;2023-06-04T07:32:45;29.10;47.00
19168;DHT22;9716;53.114;18.040;2023-06-04T07:35:15;29.10;46.50
19168;DHT22;9716;53.114;18.040;2023-06-04T07:37:44;29.20;47.00
19168;DHT22;9716;53.114;18.040;2023-06-04T07:40:15;29.40;46.50
19168;DHT22;9716;53.114;18.040;2023-06-04T07:42:45;29.50;45.50
19168;DHT22;9716;53.114;18.040;2023-06-04T07:45:14;29.50;44.80
19168;DHT22;9716;53.114;18.040;2023-06-04T07:47:43;29.50;43.90
19168;DHT22;9716;53.114;18.040;2023-06-04T07:50:12;29.50;44.00
19168;DHT22;9716;53.114;18.040;2023-06-04T07:52:42;29.50;43.60
19168;DHT22;9716;53.114;18.040;2023-06-04T07:55:11;29.50;43.20
19168;DHT22;9716;53.114;18.040;2023-06-04T07:57:39;29.30;43.60
19168;DHT22;9716;53.114;18.040;2023-06-04T08:00:10;29.00;43.20
19168;DHT22;9716;53.114;18.040;2023-06-04T08:02:39;29.00;43.50
19168;DHT22;9716;53.114;18.040;2023-06-04T08:05:08;29.00;44.30
19168;DHT22;9716;53.114;18.040;2023-06-04T08:07:37;29.20;43.70
19168;DHT22;9716;53.114;18.040;2023-06-04T08:10:08;29.30;43.10
19168;DHT22;9716;53.114;18.040;2023-06-04T08:12:37;29.40;42.70
19168;DHT22;9716;53.114;18.040;2023-06-04T08:15:06;29.40;42.40
19168;DHT22;9716;53.114;18.040;2023-06-04T08:17:35;29.50;42.20
19168;DHT22;9716;53.114;18.040;2023-06-04T08:20:05;29.50;42.40
19168;DHT22;9716;53.114;18.040;2023-06-04T08:22:35;29.60;42.30
19168;DHT22;9716;53.114;18.040;2023-06-04T08:25:04;29.60;42.00
19168;DHT22;9716;53.114;18.040;2023-06-04T08:27:35;29.70;41.60
19168;DHT22;9716;53.114;18.040;2023-06-04T08:30:05;29.70;41.60
19168;DHT22;9716;53.114;18.040;2023-06-04T08:32:34;29.50;41.80
19168;DHT22;9716;53.114;18.040;2023-06-04T08:35:03;29.50;41.80
19168;DHT22;9716;53.114;18.040;2023-06-04T08:37:32;29.30;41.80
19168;DHT22;9716;53.114;18.040;2023-06-04T08:40:01;29.00;42.10
19168;DHT22;9716;53.114;18.040;2023-06-04T08:42:40;28.80;42.20
19168;DHT22;9716;53.114;18.040;2023-06-04T08:45:10;28.70;42.70
19168;DHT22;9716;53.114;18.040;2023-06-04T08:47:43;28.80;42.70
19168;DHT22;9716;53.114;18.040;2023-06-04T08:50:14;28.80;42.20
19168;DHT22;9716;53.114;18.040;2023-06-04T08:52:43;28.70;42.40
19168;DHT22;9716;53.114;18.040;2023-06-04T08:55:14;28.60;42.50
19168;DHT22;9716;53.114;18.040;2023-06-04T08:57:45;28.60;42.60
19168;DHT22;9716;53.114;18.040;2023-06-04T09:00:16;28.70;42.50
19168;DHT22;9716;53.114;18.040;2023-06-04T09:02:46;28.60;42.80
19168;DHT22;9716;53.114;18.040;2023-06-04T09:05:21;28.60;43.10
19168;DHT22;9716;53.114;18.040;2023-06-04T09:07:53;28.70;43.20
19168;DHT22;9716;53.114;18.040;2023-06-04T09:10:23;28.60;42.90
19168;DHT22;9716;53.114;18.040;2023-06-04T09:12:54;28.40;43.20
19168;DHT22;9716;53.114;18.040;2023-06-04T09:15:25;28.20;43.30
19168;DHT22;9716;53.114;18.040;2023-06-04T09:17:53;28.20;43.30
19168;DHT22;9716;53.114;18.040;2023-06-04T09:20:22;28.20;43.80
19168;DHT22;9716;53.114;18.040;2023-06-04T09:22:51;28.10;43.90
19168;DHT22;9716;53.114;18.040;2023-06-04T09:25:21;28.00;43.90
19168;DHT22;9716;53.114;18.040;2023-06-04T09:27:51;27.80;43.80
19168;DHT22;9716;53.114;18.040;2023-06-04T09:30:21;27.70;44.20
19168;DHT22;9716;53.114;18.040;2023-06-04T09:32:50;27.60;43.60
19168;DHT22;9716;53.114;18.040;2023-06-04T09:35:21;27.60;43.70
19168;DHT22;9716;53.114;18.040;2023-06-04T09:37:53;27.50;43.80
19168;DHT22;9716;53.114;18.040;2023-06-04T09:40:23;27.50;44.40
19168;DHT22;9716;53.114;18.040;2023-06-04T09:42:52;27.60;44.50
19168;DHT22;9716;53.114;18.040;2023-06-04T09:45:31;27.60;43.90
19168;DHT22;9716;53.114;18.040;2023-06-04T09:48:01;27.30;43.90
19168;DHT22;9716;53.114;18.040;2023-06-04T09:50:33;27.10;44.30
19168;DHT22;9716;53.114;18.040;2023-06-04T09:53:13;27.00;44.10
19168;DHT22;9716;53.114;18.040;2023-06-04T09:55:43;27.00;44.10
19168;DHT22;9716;53.114;18.040;2023-06-04T09:58:11;26.80;44.40
19168;DHT22;9716;53.114;18.040;2023-06-04T10:00:45;26.70;45.10
19168;DHT22;9716;53.114;18.040;2023-06-04T10:03:15;26.70;44.70
19168;DHT22;9716;53.114;18.040;2023-06-04T10:05:47;26.70;44.60
19168;DHT22;9716;53.114;18.040;2023-06-04T10:08:17;26.50;44.80
19168;DHT22;9716;53.114;18.040;2023-06-04T10:10:50;26.20;45.10
19168;DHT22;9716;53.114;18.040;2023-06-04T10:13:21;26.10;45.80
19168;DHT22;9716;53.114;18.040;2023-06-04T10:15:52;26.10;46.20
19168;DHT22;9716;53.114;18.040;2023-06-04T10:18:23;26.10;45.90
19168;DHT22;9716;53.114;18.040;2023-06-04T10:20:56;26.20;46.20
19168;DHT22;9716;53.114;18.040;2023-06-04T10:23:24;26.20;46.20
19168;DHT22;9716;53.114;18.040;2023-06-04T10:25:53;26.30;46.10
19168;DHT22;9716;53.114;18.040;2023-06-04T10:28:22;26.40;46.30
19168;DHT22;9716;53.114;18.040;2023-06-04T10:30:52;26.30;46.30
19168;DHT22;9716;53.114;18.040;2023-06-04T10:33:21;26.20;46.40
19168;DHT22;9716;53.114;18.040;2023-06-04T10:35:54;26.20;46.20
19168;DHT22;9716;53.114;18.040;2023-06-04T10:38:23;26.20;45.90
19168;DHT22;9716;53.114;18.040;2023-06-04T10:40:53;26.00;46.00
19168;DHT22;9716;53.114;18.040;2023-06-04T10:43:21;25.80;46.40
19168;DHT22;9716;53.114;18.040;2023-06-04T10:45:51;25.50;46.70
19168;DHT22;9716;53.114;18.040;2023-06-04T10:48:20;25.40;47.20
19168;DHT22;9716;53.114;18.040;2023-06-04T10:50:50;25.30;47.40
19168;DHT22;9716;53.114;18.040;2023-06-04T10:53:19;25.40;47.00
19168;DHT22;9716;53.114;18.040;2023-06-04T10:55:49;25.40;47.30
19168;DHT22;9716;53.114;18.040;2023-06-04T10:58:18;25.40;47.50
19168;DHT22;9716;53.114;18.040;2023-06-04T11:00:48;25.40;47.40
19168;DHT22;9716;53.114;18.040;2023-06-04T11:03:20;25.40;47.40
19168;DHT22;9716;53.114;18.040;2023-06-04T11:05:49;25.60;46.90
19168;DHT22;9716;53.114;18.040;2023-06-04T11:08:29;25.70;47.20
19168;DHT22;9716;53.114;18.040;2023-06-04T11:10:58;25.80;46.70
19168;DHT22;9716;53.114;18.040;2023-06-04T11:13:27;25.80;46.70
19168;DHT22;9716;53.114;18.040;2023-06-04T11:15:56;25.70;47.00
19168;DHT22;9716;53.114;18.040;2023-06-04T11:18:27;25.60;46.90
19168;DHT22;9716;53.114;18.040;2023-06-04T11:20:59;25.60;46.80
19168;DHT22;9716;53.114;18.040;2023-06-04T11:23:28;25.40;46.80
19168;DHT22;9716;53.114;18.040;2023-06-04T11:25:58;25.20;47.10
19168;DHT22;9716;53.114;18.040;2023-06-04T11:28:27;25.00;47.20
19168;DHT22;9716;53.114;18.040;2023-06-04T11:30:56;25.00;47.30
19168;DHT22;9716;53.114;18.040;2023-06-04T11:33:27;24.90;47.20
19168;DHT22;9716;53.114;18.040;2023-06-04T11:35:56;24.90;47.40
19168;DHT22;9716;53.114;18.040;2023-06-04T11:38:25;24.90;47.30
19168;DHT22;9716;53.114;18.040;2023-06-04T11:40:59;24.70;47.30
19168;DHT22;9716;53.114;18.040;2023-06-04T11:43:32;24.50;47.40
19168;DHT22;9716;53.114;18.040;2023-06-04T11:46:05;24.30;47.80
19168;DHT22;9716;53.114;18.040;2023-06-04T11:48:39;24.20;47.80
19168;DHT22;9716;53.114;18.040;2023-06-04T11:51:08;24.20;48.00
19168;DHT22;9716;53.114;18.040;2023-06-04T11:53:37;24.30;48.10
19168;DHT22;9716;53.114;18.040;2023-06-04T11:56:06;24.40;48.10
19168;DHT22;9716;53.114;18.040;2023-06-04T11:58:35;24.60;47.90
19168;DHT22;9716;53.114;18.040;2023-06-04T12:01:04;24.80;47.40
19168;DHT22;9716;53.114;18.040;2023-06-04T12:03:35;24.90;47.40
19168;DHT22;9716;53.114;18.040;2023-06-04T12:06:13;25.00;47.50
19168;DHT22;9716;53.114;18.040;2023-06-04T12:08:48;25.00;46.80
19168;DHT22;9716;53.114;18.040;2023-06-04T12:11:28;25.00;47.10
19168;DHT22;9716;53.114;18.040;2023-06-04T12:13:59;25.00;47.40
19168;DHT22;9716;53.114;18.040;2023-06-04T12:16:29;25.10;47.30
19168;DHT22;9716;53.114;18.040;2023-06-04T12:19:05;25.10;47.30
19168;DHT22;9716;53.114;18.040;2023-06-04T12:21:36;25.10;47.30
19168;DHT22;9716;53.114;18.040;2023-06-04T12:24:06;25.10;47.00
19168;DHT22;9716;53.114;18.040;2023-06-04T12:26:36;25.10;46.80
19168;DHT22;9716;53.114;18.040;2023-06-04T12:29:10;25.00;46.90
19168;DHT22;9716;53.114;18.040;2023-06-04T12:31:39;24.80;47.10
19168;DHT22;9716;53.114;18.040;2023-06-04T12:34:10;24.70;47.40
19168;DHT22;9716;53.114;18.040;2023-06-04T12:36:40;24.70;47.30
19168;DHT22;9716;53.114;18.040;2023-06-04T12:39:10;24.60;47.30
19168;DHT22;9716;53.114;18.040;2023-06-04T12:41:45;24.60;47.20
19168;DHT22;9716;53.114;18.040;2023-06-04T12:44:14;24.60;47.40
19168;DHT22;9716;53.114;18.040;2023-06-04T12:46:42;24.60;47.70
19168;DHT22;9716;53.114;18.040;2023-06-04T12:49:11;24.60;47.70
19168;DHT22;9716;53.114;18.040;2023-06-04T12:51:41;24.60;47.70
19168;DHT22;9716;53.114;18.040;2023-06-04T12:54:10;24.50;47.60
19168;DHT22;9716;53.114;18.040;2023-06-04T12:56:39;24.40;47.50
19168;DHT22;9716;53.114;18.040;2023-06-04T12:59:10;24.40;48.30
19168;DHT22;9716;53.114;18.040;2023-06-04T13:01:39;24.30;47.60
19168;DHT22;9716;53.114;18.040;2023-06-04T13:04:08;24.30;47.70
19168;DHT22;9716;53.114;18.040;2023-06-04T13:06:37;24.20;47.60
19168;DHT22;9716;53.114;18.040;2023-06-04T13:09:07;24.20;47.70
19168;DHT22;9716;53.114;18.040;2023-06-04T13:11:38;24.20;47.70
19168;DHT22;9716;53.114;18.040;2023-06-04T13:14:07;24.30;47.70
19168;DHT22;9716;53.114;18.040;2023-06-04T13:16:37;24.20;47.70
19168;DHT22;9716;53.114;18.040;2023-06-04T13:19:07;24.20;47.90
19168;DHT22;9716;53.114;18.040;2023-06-04T13:21:36;24.10;48.10
19168;DHT22;9716;53.114;18.040;2023-06-04T13:24:05;24.00;48.30
19168;DHT22;9716;53.114;18.040;2023-06-04T13:26:36;23.90;48.40
19168;DHT22;9716;53.114;18.040;2023-06-04T13:29:06;23.90;48.50
19168;DHT22;9716;53.114;18.040;2023-06-04T13:31:34;23.90;48.50
19168;DHT22;9716;53.114;18.040;2023-06-04T13:34:03;23.90;48.40
19168;DHT22;9716;53.114;18.040;2023-06-04T13:36:52;23.80;48.30
19168;DHT22;9716;53.114;18.040;2023-06-04T13:39:20;23.80;48.20
19168;DHT22;9716;53.114;18.040;2023-06-04T13:41:51;23.80;48.30
19168;DHT22;9716;53.114;18.040;2023-06-04T13:44:21;23.80;48.30
19168;DHT22;9716;53.114;18.040;2023-06-04T13:46:53;23.80;47.80
19168;DHT22;9716;53.114;18.040;2023-06-04T13:49:22;23.70;47.70
19168;DHT22;9716;53.114;18.040;2023-06-04T13:51:50;23.60;47.70
19168;DHT22;9716;53.114;18.040;2023-06-04T13:54:19;23.60;47.80
19168;DHT22;9716;53.114;18.040;2023-06-04T13:56:48;23.50;47.80
19168;DHT22;9716;53.114;18.040;2023-06-04T13:59:18;23.50;47.80
19168;DHT22;9716;53.114;18.040;2023-06-04T14:01:47;23.50;47.70
19168;DHT22;9716;53.114;18.040;2023-06-04T14:04:16;23.50;47.90
19168;DHT22;9716;53.114;18.040;2023-06-04T14:06:46;23.50;48.00
19168;DHT22;9716;53.114;18.040;2023-06-04T14:09:15;23.50;48.10
19168;DHT22;9716;53.114;18.040;2023-06-04T14:11:44;23.60;48.30
19168;DHT22;9716;53.114;18.040;2023-06-04T14:14:18;23.70;48.20
19168;DHT22;9716;53.114;18.040;2023-06-04T14:16:48;23.70;48.20
19168;DHT22;9716;53.114;18.040;2023-06-04T14:19:17;23.70;48.00
19168;DHT22;9716;53.114;18.040;2023-06-04T14:21:46;23.70;47.80
19168;DHT22;9716;53.114;18.040;2023-06-04T14:24:15;23.70;47.90
19168;DHT22;9716;53.114;18.040;2023-06-04T14:26:44;23.60;47.90
19168;DHT22;9716;53.114;18.040;2023-06-04T14:29:13;23.60;48.00
19168;DHT22;9716;53.114;18.040;2023-06-04T14:31:44;23.50;48.00
19168;DHT22;9716;53.114;18.040;2023-06-04T14:34:13;23.50;47.90
19168;DHT22;9716;53.114;18.040;2023-06-04T14:36:42;23.50;47.90
19168;DHT22;9716;53.114;18.040;2023-06-04T14:39:11;23.50;48.00
19168;DHT22;9716;53.114;18.040;2023-06-04T14:41:39;23.50;48.10
19168;DHT22;9716;53.114;18.040;2023-06-04T14:44:08;23.50;48.10
19168;DHT22;9716;53.114;18.040;2023-06-04T14:46:36;23.50;48.00
19168;DHT22;9716;53.114;18.040;2023-06-04T14:49:07;23.50;48.10
19168;DHT22;9716;53.114;18.040;2023-06-04T14:51:35;23.50;48.10
19168;DHT22;9716;53.114;18.040;2023-06-04T14:54:04;23.60;48.30
19168;DHT22;9716;53.114;18.040;2023-06-04T14:56:33;23.70;48.30
19168;DHT22;9716;53.114;18.040;2023-06-04T14:59:02;23.70;48.20
19168;DHT22;9716;53.114;18.040;2023-06-04T15:01:36;23.80;48.30
19168;DHT22;9716;53.114;18.040;2023-06-04T15:04:07;23.90;48.30
19168;DHT22;9716;53.114;18.040;2023-06-04T15:06:36;24.00;48.40
19168;DHT22;9716;53.114;18.040;2023-06-04T15:09:05;24.00;48.30
19168;DHT22;9716;53.114;18.040;2023-06-04T15:11:33;24.10;48.40
19168;DHT22;9716;53.114;18.040;2023-06-04T15:14:02;24.10;48.40
19168;DHT22;9716;53.114;18.040;2023-06-04T15:16:30;24.10;49.10
19168;DHT22;9716;53.114;18.040;2023-06-04T15:18:59;24.10;48.40
19168;DHT22;9716;53.114;18.040;2023-06-04T15:21:29;24.00;48.30
19168;DHT22;9716;53.114;18.040;2023-06-04T15:23:58;24.00;48.40
19168;DHT22;9716;53.114;18.040;2023-06-04T15:26:27;23.90;48.40
19168;DHT22;9716;53.114;18.040;2023-06-04T15:28:56;23.80;48.40
19168;DHT22;9716;53.114;18.040;2023-06-04T15:31:24;23.70;48.40
19168;DHT22;9716;53.114;18.040;2023-06-04T15:33:53;23.70;48.60
19168;DHT22;9716;53.114;18.040;2023-06-04T15:36:21;23.60;48.60
19168;DHT22;9716;53.114;18.040;2023-06-04T15:38:51;23.60;48.70
19168;DHT22;9716;53.114;18.040;2023-06-04T15:41:20;23.50;48.90
19168;DHT22;9716;53.114;18.040;2023-06-04T15:43:50;23.50;49.00
19168;DHT22;9716;53.114;18.040;2023-06-04T15:46:22;23.50;49.10
19168;DHT22;9716;53.114;18.040;2023-06-04T15:48:52;23.40;49.10